SGCO/CIO METAR and TAF weather

Enter ICAO airport designator
Station Type Date Time Source
SGCO METAR 2022/01/19 18:00 UTC NOAA

SGCO 191800Z 29005KT 9999 FEW030 37/17 Q1011


Station Type Date Time Source
SGCO Decoded METAR 2022/01/19 18:00 UTC NOAA

Concepcion, Paraguay (SGCO) 23-25S 057-18W 74M
Jan 19, 2022 - 01:00 PM EST / 2022.01.19 1800 UTC
Wind: from the WNW (290 degrees) at 6 MPH (5 KT):0
Visibility: greater than 7 mile(s):0
Sky conditions: mostly clear
Temperature: 98 F (37 C)
Heat index: 99.0 F (37.2 C):1
Dew Point: 62 F (17 C)
Relative Humidity: 30%
Pressure (altimeter): 29.85 in. Hg (1011 hPa)
ob: SGCO 191800Z 29005KT 9999 FEW030 37/17 Q1011
cycle: 18

Station Type Date Time Source
SGCO TAF 2022/01/19 18:00 UTC NOAA

TAF SGCO 191615Z 1918/2018 02015KT 9999 SCT027 TX40/1919Z TN27/2009Z PROB30
TEMPO 1919/1922 8000 TS SHRA BKN027 FEW040CB
BECMG 1923/2001 05010KT 9999 SCT033
BECMG 2003/2006 CAVOK

Example: see airport list